createdAt,value
2023-02-02T00:03:00.698Z,100.00
2023-02-02T00:06:03.404Z,100.00
2023-02-02T00:15:32.314Z,100.00
2023-02-02T00:18:08.549Z,100.00
2023-02-02T00:20:39.002Z,100.00
2023-02-02T00:23:10.606Z,100.00
2023-02-02T00:25:53.838Z,100.00
2023-02-02T00:31:15.149Z,100.00
2023-02-02T00:33:50.021Z,100.00
2023-02-02T00:36:23.362Z,100.00
2023-02-02T00:39:01.208Z,100.00
2023-02-02T00:41:38.670Z,100.00
2023-02-02T00:44:32.873Z,100.00
2023-02-02T00:47:35.056Z,100.00
2023-02-02T00:50:05.215Z,100.00
2023-02-02T00:55:34.795Z,100.00
2023-02-02T00:58:10.197Z,100.00
2023-02-02T01:00:39.240Z,100.00
2023-02-02T01:03:08.715Z,100.00
2023-02-02T01:05:39.580Z,100.00
2023-02-02T01:08:09.876Z,100.00
2023-02-02T01:10:47.268Z,100.00
2023-02-02T01:13:52.380Z,100.00
2023-02-02T01:16:26.551Z,100.00
2023-02-02T01:22:05.234Z,100.00
2023-02-02T01:24:35.570Z,100.00
2023-02-02T01:30:08.243Z,100.00
2023-02-02T01:33:13.306Z,100.00
2023-02-02T01:35:54.116Z,100.00
2023-02-02T01:38:25.706Z,100.00
2023-02-02T01:41:00.633Z,100.00
2023-02-02T01:49:48.060Z,100.00
2023-02-02T01:52:31.030Z,100.00
2023-02-02T01:55:08.612Z,100.00
2023-02-02T01:58:01.423Z,100.00
2023-02-02T02:00:30.660Z,100.00
2023-02-02T02:03:07.658Z,100.00
2023-02-02T02:05:44.963Z,100.00
2023-02-02T02:11:36.731Z,100.00
2023-02-02T02:14:29.021Z,100.00
2023-02-02T02:17:55.492Z,100.00
2023-02-02T02:21:32.434Z,100.00
2023-02-02T02:25:05.370Z,100.00
2023-02-02T02:28:32.333Z,100.00
2023-02-02T02:32:08.315Z,100.00
2023-02-02T02:35:08.521Z,100.00
2023-02-02T02:37:54.515Z,100.00
2023-02-02T02:40:48.019Z,100.00
2023-02-02T02:46:06.378Z,100.00
2023-02-02T02:48:42.607Z,100.00
2023-02-02T02:51:49.980Z,100.00
2023-02-02T02:54:31.292Z,100.00
2023-02-02T02:57:43.752Z,100.00
2023-02-02T03:00:33.943Z,100.00
2023-02-02T03:03:48.263Z,100.00
2023-02-02T03:09:43.826Z,100.00
2023-02-02T03:12:13.892Z,100.00
2023-02-02T03:17:53.760Z,100.00
2023-02-02T03:20:36.238Z,100.00
2023-02-02T03:33:56.007Z,100.00
2023-02-02T03:36:24.457Z,100.00
2023-02-02T03:38:53.076Z,100.00
2023-02-02T03:41:21.698Z,100.00
2023-02-02T03:43:50.159Z,100.00
2023-02-02T03:46:19.338Z,100.00
2023-02-02T03:48:47.840Z,100.00
2023-02-02T03:51:16.999Z,100.00
2023-02-02T03:53:47.705Z,100.00
2023-02-02T03:56:17.241Z,100.00
2023-02-02T03:58:47.256Z,100.00
2023-02-02T04:01:15.950Z,100.00
2023-02-02T04:03:46.363Z,100.00
2023-02-02T04:06:31.137Z,100.00
2023-02-02T04:08:59.727Z,100.00
2023-02-02T04:11:28.185Z,100.00
2023-02-02T04:28:28.087Z,100.00
2023-02-02T04:30:57.297Z,100.00
2023-02-02T04:33:28.110Z,100.00
2023-02-02T04:35:56.648Z,100.00
2023-02-02T04:38:25.280Z,100.00
2023-02-02T04:40:54.060Z,100.00
2023-02-02T04:43:22.605Z,100.00
2023-02-02T04:45:57.780Z,100.00
2023-02-02T04:48:26.406Z,100.00
2023-02-02T04:51:11.505Z,100.00
2023-02-02T04:53:41.887Z,100.00
2023-02-02T04:56:16.724Z,100.00
2023-02-02T04:58:46.293Z,100.00
2023-02-02T05:01:20.913Z,100.00
2023-02-02T05:03:50.760Z,100.00
2023-02-02T05:06:20.272Z,100.00
2023-02-02T05:09:18.249Z,100.00
2023-02-02T05:11:47.194Z,100.00
2023-02-02T05:14:18.536Z,100.00
2023-02-02T05:16:47.363Z,100.00
2023-02-02T05:19:17.568Z,100.00
2023-02-02T05:21:50.787Z,100.00
2023-02-02T05:24:19.579Z,100.00
2023-02-02T05:26:48.224Z,100.00
2023-02-02T05:29:17.021Z,100.00
2023-02-02T05:31:45.647Z,100.00
2023-02-02T05:34:14.368Z,100.00
2023-02-02T05:36:42.913Z,100.00
2023-02-02T05:39:11.587Z,100.00
2023-02-02T05:41:40.278Z,100.00
2023-02-02T05:44:13.557Z,100.00
2023-02-02T05:46:42.668Z,100.00
2023-02-02T05:49:14.446Z,100.00
2023-02-02T05:54:44.553Z,100.00
2023-02-02T05:57:14.343Z,100.00
2023-02-02T05:59:43.086Z,100.00
2023-02-02T06:02:11.842Z,100.00
2023-02-02T06:04:40.691Z,100.00
2023-02-02T06:07:09.509Z,100.00
2023-02-02T06:09:38.995Z,100.00
2023-02-02T06:12:07.675Z,100.00
2023-02-02T06:14:36.631Z,100.00
2023-02-02T06:17:06.817Z,100.00
2023-02-02T06:19:35.334Z,100.00
2023-02-02T06:22:04.125Z,100.00
2023-02-02T06:24:33.101Z,100.00
2023-02-02T06:27:01.834Z,100.00
2023-02-02T06:29:30.884Z,100.00
2023-02-02T06:32:00.023Z,100.00
2023-02-02T06:34:28.567Z,100.00
2023-02-02T06:36:57.215Z,100.00
2023-02-02T06:39:26.179Z,100.00
2023-02-02T06:41:55.135Z,100.00
2023-02-02T06:44:24.382Z,100.00
2023-02-02T06:46:53.857Z,100.00
2023-02-02T06:49:23.146Z,100.00
2023-02-02T06:51:51.573Z,100.00
2023-02-02T06:54:21.427Z,100.00
2023-02-02T06:56:49.898Z,100.00
2023-02-02T06:59:18.388Z,100.00
2023-02-02T07:01:50.242Z,100.00
2023-02-02T07:04:19.641Z,100.00
2023-02-02T07:06:53.995Z,100.00
2023-02-02T07:09:22.464Z,100.00
2023-02-02T07:11:51.357Z,100.00
2023-02-02T07:14:20.194Z,100.00
2023-02-02T07:16:48.583Z,100.00
2023-02-02T07:19:17.036Z,100.00
2023-02-02T07:24:38.180Z,100.00
2023-02-02T07:27:06.742Z,100.00
2023-02-02T07:29:36.932Z,100.00
2023-02-02T07:32:06.238Z,100.00
2023-02-02T07:34:39.188Z,100.00
2023-02-02T07:37:08.369Z,100.00
2023-02-02T07:39:37.303Z,100.00
2023-02-02T07:42:06.120Z,100.00
2023-02-02T07:44:34.572Z,100.00
2023-02-02T07:47:03.149Z,100.00
2023-02-02T07:49:31.940Z,100.00
2023-02-02T07:52:00.579Z,100.00
2023-02-02T07:54:29.255Z,100.00
2023-02-02T07:56:58.557Z,100.00
2023-02-02T07:59:27.084Z,100.00
2023-02-02T08:01:56.043Z,100.00
2023-02-02T08:04:24.619Z,100.00
2023-02-02T08:06:53.675Z,100.00
2023-02-02T08:09:22.096Z,100.00
2023-02-02T08:11:50.564Z,100.00
2023-02-02T08:14:18.979Z,100.00
2023-02-02T08:16:47.555Z,100.00
2023-02-02T08:19:16.559Z,100.00
2023-02-02T08:21:45.234Z,100.00
2023-02-02T08:24:13.818Z,100.00
2023-02-02T08:26:42.387Z,100.00
2023-02-02T08:29:12.475Z,100.00
2023-02-02T08:31:44.085Z,100.00
2023-02-02T08:34:14.218Z,100.00
2023-02-02T08:36:42.736Z,100.00
2023-02-02T08:39:14.375Z,100.00
2023-02-02T08:41:42.967Z,100.00
2023-02-02T08:44:15.613Z,100.00
2023-02-02T08:46:45.459Z,100.00
2023-02-02T08:49:14.683Z,100.00
2023-02-02T08:51:43.246Z,100.00
2023-02-02T08:54:11.686Z,100.00
2023-02-02T08:56:42.579Z,100.00
2023-02-02T08:59:11.164Z,100.00
2023-02-02T09:01:39.596Z,100.00
2023-02-02T09:04:15.930Z,100.00
2023-02-02T09:06:44.560Z,100.00
2023-02-02T09:09:19.421Z,100.00
2023-02-02T09:11:47.854Z,100.00
2023-02-02T09:14:16.489Z,100.00
2023-02-02T09:16:45.198Z,100.00
2023-02-02T09:19:21.844Z,100.00
2023-02-02T09:21:51.136Z,100.00
2023-02-02T09:24:37.940Z,99.79
2023-02-02T09:27:08.794Z,99.54
2023-02-02T09:29:37.208Z,98.49
2023-02-02T09:32:13.220Z,98.35
2023-02-02T09:34:42.702Z,98.07
2023-02-02T09:37:12.152Z,98.42
2023-02-02T09:39:58.220Z,97.44
2023-02-02T09:50:37.319Z,96.92
2023-02-02T09:53:25.056Z,96.15
2023-02-02T09:55:58.830Z,95.60
2023-02-02T10:01:39.404Z,97.03
2023-02-02T10:04:38.699Z,97.65
2023-02-02T10:07:20.475Z,97.78
2023-02-02T10:10:36.311Z,98.02
2023-02-02T10:13:30.580Z,98.27
2023-02-02T10:16:32.933Z,98.76
2023-02-02T10:19:11.046Z,99.06
2023-02-02T10:22:07.557Z,99.34
2023-02-02T10:24:37.253Z,99.84
2023-02-02T10:27:21.834Z,99.94
2023-02-02T10:30:01.947Z,100.00
2023-02-02T10:33:07.640Z,100.00
2023-02-02T10:35:59.763Z,100.00
2023-02-02T10:38:57.046Z,100.00
2023-02-02T10:42:00.461Z,100.00
2023-02-02T10:44:51.631Z,100.00
2023-02-02T10:47:28.536Z,100.00
2023-02-02T10:50:39.296Z,100.00
2023-02-02T10:53:14.226Z,100.00
2023-02-02T10:56:12.088Z,100.00
2023-02-02T10:58:47.421Z,100.00
2023-02-02T11:01:18.147Z,100.00
2023-02-02T11:03:49.590Z,100.00
2023-02-02T11:06:36.779Z,100.00
2023-02-02T11:09:21.437Z,100.00
2023-02-02T11:12:10.636Z,100.00
2023-02-02T11:15:08.459Z,100.00
2023-02-02T11:17:37.530Z,100.00
2023-02-02T11:20:39.095Z,100.00
2023-02-02T11:23:18.984Z,100.00
2023-02-02T11:25:58.558Z,100.00
2023-02-02T11:28:32.291Z,100.00
2023-02-02T11:31:00.915Z,100.00
2023-02-02T11:33:34.500Z,100.00
2023-02-02T11:36:20.166Z,100.00
2023-02-02T11:38:48.732Z,100.00
2023-02-02T11:41:19.231Z,100.00
2023-02-02T11:43:59.492Z,100.00
2023-02-02T11:46:40.667Z,100.00
2023-02-02T11:49:20.848Z,100.00
2023-02-02T11:52:07.805Z,100.00
2023-02-02T11:54:49.864Z,100.00
2023-02-02T11:57:31.599Z,100.00
2023-02-02T12:00:27.151Z,100.00
2023-02-02T12:02:55.818Z,99.90
2023-02-02T12:05:37.569Z,99.36
2023-02-02T12:08:13.042Z,99.23
2023-02-02T12:11:01.336Z,99.18
2023-02-02T12:14:02.875Z,98.35
2023-02-02T12:17:08.214Z,98.61
2023-02-02T12:19:49.735Z,98.50
2023-02-02T12:23:11.632Z,98.41
2023-02-02T12:26:37.689Z,98.37
2023-02-02T12:29:36.334Z,98.41
2023-02-02T12:32:54.808Z,98.96
2023-02-02T12:35:51.946Z,98.57
2023-02-02T12:39:07.322Z,98.26
2023-02-02T12:42:10.017Z,98.66
2023-02-02T12:44:51.226Z,98.65
2023-02-02T12:48:01.133Z,98.40
2023-02-02T12:51:04.507Z,98.91
2023-02-02T12:54:34.684Z,99.27
2023-02-02T12:57:25.452Z,99.67
2023-02-02T13:00:13.569Z,99.95
2023-02-02T13:03:21.901Z,100.00
2023-02-02T13:06:28.424Z,100.00
2023-02-02T13:09:59.297Z,100.00
2023-02-02T13:12:32.801Z,100.00
2023-02-02T13:15:07.764Z,100.00
2023-02-02T13:17:49.640Z,100.00
2023-02-02T13:20:30.625Z,100.00
2023-02-02T13:23:06.563Z,100.00
2023-02-02T13:25:44.819Z,100.00
2023-02-02T13:28:40.304Z,100.00
2023-02-02T13:31:39.875Z,100.00
2023-02-02T13:34:25.797Z,100.00
2023-02-02T13:37:04.993Z,100.00
2023-02-02T13:39:39.786Z,100.00
2023-02-02T13:42:24.847Z,100.00
2023-02-02T13:45:06.151Z,100.00
2023-02-02T13:47:44.602Z,100.00
2023-02-02T13:50:21.110Z,100.00
2023-02-02T13:53:06.295Z,100.00
2023-02-02T13:56:03.585Z,100.00
2023-02-02T13:58:54.337Z,100.00
2023-02-02T14:01:24.791Z,100.00
2023-02-02T14:03:58.362Z,100.00
2023-02-02T14:06:28.779Z,100.00
2023-02-02T14:09:02.862Z,100.00
2023-02-02T14:11:37.160Z,100.00
2023-02-02T14:14:33.522Z,100.00
2023-02-02T14:17:13.454Z,99.97
2023-02-02T14:19:51.029Z,99.85
2023-02-02T14:22:39.078Z,100.00
2023-02-02T14:25:33.945Z,100.00
2023-02-02T14:28:08.501Z,100.00
2023-02-02T14:30:39.088Z,100.00
2023-02-02T14:33:27.412Z,100.00
2023-02-02T14:36:01.611Z,100.00
2023-02-02T14:38:44.513Z,100.00
2023-02-02T14:42:03.466Z,100.00
2023-02-02T14:44:34.210Z,100.00
2023-02-02T14:47:03.342Z,100.00
2023-02-02T14:49:35.598Z,100.00
2023-02-02T14:52:05.465Z,100.00
2023-02-02T14:54:39.876Z,100.00
2023-02-02T14:57:28.854Z,100.00
2023-02-02T15:00:01.086Z,100.00
2023-02-02T15:02:34.203Z,100.00
2023-02-02T15:13:45.632Z,100.00
2023-02-02T15:16:25.692Z,100.00
2023-02-02T15:19:06.681Z,100.00
2023-02-02T15:21:38.722Z,100.00
2023-02-02T15:24:22.903Z,100.00
2023-02-02T15:26:54.721Z,100.00
2023-02-02T15:29:44.043Z,100.00
2023-02-02T15:32:20.455Z,100.00
2023-02-02T15:34:54.518Z,100.00
2023-02-02T15:37:30.173Z,100.00
2023-02-02T15:40:02.122Z,100.00
2023-02-02T15:42:55.170Z,100.00
2023-02-02T15:46:01.067Z,100.00
2023-02-02T15:48:34.416Z,100.00
2023-02-02T15:51:16.207Z,100.00
2023-02-02T15:53:44.501Z,100.00
2023-02-02T15:56:30.439Z,100.00
2023-02-02T15:59:01.702Z,100.00
2023-02-02T16:01:44.483Z,100.00
2023-02-02T16:04:35.819Z,100.00
2023-02-02T16:07:15.597Z,100.00
2023-02-02T16:09:44.868Z,99.85
2023-02-02T16:12:21.220Z,99.93
2023-02-02T16:14:53.004Z,99.95
2023-02-02T16:17:35.308Z,100.00
2023-02-02T16:20:14.434Z,99.61
2023-02-02T16:22:46.759Z,99.31
2023-02-02T16:25:21.222Z,98.94
2023-02-02T16:27:52.071Z,98.91
2023-02-02T16:30:38.022Z,98.69
2023-02-02T16:33:44.894Z,98.86
2023-02-02T16:36:32.299Z,98.94
2023-02-02T16:39:01.473Z,98.44
2023-02-02T16:41:34.494Z,98.37
2023-02-02T16:44:43.692Z,97.70
2023-02-02T16:47:32.197Z,96.60
2023-02-02T16:50:09.877Z,96.88
2023-02-02T16:52:59.717Z,96.68
2023-02-02T16:55:43.416Z,96.97
2023-02-02T16:58:21.922Z,96.40
2023-02-02T17:01:16.594Z,95.92
2023-02-02T17:03:52.674Z,96.06
2023-02-02T17:06:46.174Z,95.81
2023-02-02T17:09:38.042Z,95.25
2023-02-02T17:12:34.066Z,95.06
2023-02-02T17:15:17.041Z,94.21
2023-02-02T17:17:48.086Z,93.80
2023-02-02T17:20:18.607Z,93.72
2023-02-02T17:22:55.909Z,93.50
2023-02-02T17:25:42.011Z,92.64
2023-02-02T17:28:18.315Z,92.09
2023-02-02T17:30:56.769Z,90.51
2023-02-02T17:33:26.720Z,89.91
2023-02-02T17:35:56.377Z,89.62
2023-02-02T17:38:27.715Z,89.26
2023-02-02T17:41:01.627Z,89.18
2023-02-02T17:43:32.480Z,88.99
2023-02-02T17:46:03.290Z,89.29
2023-02-02T17:48:31.948Z,89.27
2023-02-02T17:51:03.345Z,89.17
2023-02-02T17:53:33.509Z,88.79
2023-02-02T17:56:02.217Z,89.16
2023-02-02T17:58:31.029Z,89.29
2023-02-02T18:01:00.016Z,89.30
2023-02-02T18:03:36.282Z,89.34
2023-02-02T18:06:05.122Z,89.35
2023-02-02T18:08:34.221Z,89.20
2023-02-02T18:11:02.967Z,89.23
2023-02-02T18:13:31.958Z,88.73
2023-02-02T18:16:00.355Z,88.85
2023-02-02T18:18:30.010Z,88.87
2023-02-02T18:20:59.018Z,88.92
2023-02-02T18:23:27.595Z,88.75
2023-02-02T18:35:46.666Z,88.81
2023-02-02T18:38:15.849Z,89.02
2023-02-02T18:40:44.241Z,88.86
2023-02-02T18:43:12.803Z,88.88
2023-02-02T18:45:41.372Z,89.16
2023-02-02T18:48:14.477Z,89.25
2023-02-02T18:50:42.963Z,89.26
2023-02-02T18:53:11.400Z,89.27
2023-02-02T18:55:40.051Z,89.29
2023-02-02T18:58:10.869Z,89.14
2023-02-02T19:00:39.485Z,88.98
2023-02-02T19:03:08.265Z,88.79
2023-02-02T19:05:55.664Z,88.52
2023-02-02T19:08:24.343Z,88.07
2023-02-02T19:11:00.613Z,87.81
2023-02-02T19:13:29.509Z,87.57
2023-02-02T19:16:00.103Z,87.50
2023-02-02T19:18:31.560Z,87.63
2023-02-02T19:20:59.970Z,87.18
2023-02-02T19:23:32.274Z,87.05
2023-02-02T19:26:00.916Z,87.45
2023-02-02T19:28:31.485Z,87.41
2023-02-02T19:31:03.656Z,87.69
2023-02-02T19:33:41.597Z,87.50
2023-02-02T19:36:17.679Z,87.57
2023-02-02T19:38:47.881Z,87.59
2023-02-02T19:41:25.989Z,87.32
2023-02-02T19:44:11.321Z,87.58
2023-02-02T19:46:45.067Z,87.01
2023-02-02T19:49:23.728Z,87.24
2023-02-02T19:51:56.455Z,87.40
2023-02-02T19:54:32.141Z,87.37
2023-02-02T19:57:12.847Z,86.85
2023-02-02T19:59:45.173Z,86.22
2023-02-02T20:02:43.956Z,86.63
2023-02-02T20:05:23.556Z,86.45
2023-02-02T20:08:16.950Z,86.34
2023-02-02T20:10:46.250Z,86.38
2023-02-02T20:13:40.992Z,86.40
2023-02-02T20:16:18.138Z,86.49
2023-02-02T20:18:54.361Z,86.49
2023-02-02T20:21:43.020Z,86.64
2023-02-02T20:24:36.557Z,86.52
2023-02-02T20:27:33.556Z,86.48
2023-02-02T20:30:21.971Z,86.77
2023-02-02T20:32:56.268Z,86.95
2023-02-02T20:35:36.121Z,87.17
2023-02-02T20:38:28.489Z,87.55
2023-02-02T20:40:59.602Z,87.40
2023-02-02T20:43:28.033Z,87.73
2023-02-02T20:45:56.525Z,88.11
2023-02-02T20:48:25.776Z,88.18
2023-02-02T20:50:54.185Z,88.02
2023-02-02T20:53:22.611Z,88.28
2023-02-02T20:55:56.895Z,88.46
2023-02-02T20:58:26.144Z,88.64
2023-02-02T21:00:55.052Z,88.63
2023-02-02T21:03:23.649Z,88.79
2023-02-02T21:05:52.090Z,89.18
2023-02-02T21:08:20.578Z,89.41
2023-02-02T21:10:48.962Z,89.30
2023-02-02T21:13:17.332Z,89.51
2023-02-02T21:15:45.662Z,89.51
2023-02-02T21:18:14.663Z,89.74
2023-02-02T21:20:43.066Z,89.93
2023-02-02T21:23:11.502Z,90.17
2023-02-02T21:25:39.920Z,90.39
2023-02-02T21:28:08.387Z,90.44
2023-02-02T21:30:36.963Z,90.69
2023-02-02T21:33:06.565Z,90.56
2023-02-02T21:35:35.004Z,90.72
2023-02-02T21:38:14.154Z,90.84
2023-02-02T21:40:42.578Z,90.91
2023-02-02T21:43:18.846Z,90.86
2023-02-02T21:45:51.641Z,90.95
2023-02-02T21:48:20.114Z,90.96
2023-02-02T21:50:48.703Z,90.87
2023-02-02T21:53:17.017Z,91.09
2023-02-02T21:55:59.484Z,90.91
2023-02-02T21:58:35.271Z,91.05
2023-02-02T22:01:32.001Z,90.90
2023-02-02T22:04:01.042Z,91.15
2023-02-02T22:06:38.725Z,91.09
2023-02-02T22:09:19.403Z,91.35
2023-02-02T22:11:58.448Z,91.24
2023-02-02T22:14:43.896Z,91.27
2023-02-02T22:17:22.049Z,91.33
2023-02-02T22:19:59.176Z,91.66
2023-02-02T22:22:35.518Z,91.55
2023-02-02T22:25:20.902Z,91.83
2023-02-02T22:27:58.281Z,91.98
2023-02-02T22:30:41.367Z,91.92
2023-02-02T22:33:11.953Z,92.06
2023-02-02T22:35:42.421Z,92.27
2023-02-02T22:38:17.493Z,92.19
2023-02-02T22:40:48.161Z,92.34
2023-02-02T22:43:18.741Z,92.38
2023-02-02T22:45:47.685Z,92.95
2023-02-02T22:48:17.278Z,93.08
2023-02-02T22:50:45.733Z,93.29
2023-02-02T22:53:15.607Z,93.57
2023-02-02T22:55:44.210Z,93.67
2023-02-02T22:58:12.607Z,93.78
2023-02-02T23:00:40.966Z,93.79
2023-02-02T23:03:09.465Z,94.23
2023-02-02T23:05:38.759Z,94.31
2023-02-02T23:08:07.249Z,94.28
2023-02-02T23:10:35.898Z,94.36
2023-02-02T23:13:06.067Z,94.57
2023-02-02T23:15:35.290Z,94.72
2023-02-02T23:18:04.639Z,94.73
2023-02-02T23:20:33.294Z,94.96
2023-02-02T23:23:01.675Z,95.07
2023-02-02T23:25:30.266Z,95.18
2023-02-02T23:27:58.747Z,95.46
2023-02-02T23:30:29.393Z,95.65
2023-02-02T23:32:57.952Z,95.53
2023-02-02T23:35:26.413Z,95.82
2023-02-02T23:37:54.893Z,95.88
2023-02-02T23:40:28.847Z,95.89
2023-02-02T23:42:59.968Z,96.12
2023-02-02T23:45:28.348Z,96.21
2023-02-02T23:47:56.936Z,96.39
2023-02-02T23:50:25.679Z,96.67
2023-02-02T23:52:55.073Z,96.57
2023-02-02T23:55:27.051Z,96.83
2023-02-02T23:57:58.270Z,96.78
